createdAt,value
2017-06-08T00:00:21.214Z,1012.08
2017-06-08T00:01:22.628Z,1012.03
2017-06-08T00:02:24.080Z,1012.07
2017-06-08T00:03:25.461Z,1012.03
2017-06-08T00:04:26.881Z,1012.05
2017-06-08T00:05:28.293Z,1012.02
2017-06-08T00:06:29.710Z,1012.05
2017-06-08T00:07:31.122Z,1012.06
2017-06-08T00:08:32.537Z,1012.00
2017-06-08T00:09:33.963Z,1012.02
2017-06-08T00:10:35.369Z,1012.00
2017-06-08T00:11:36.785Z,1011.96
2017-06-08T00:12:38.204Z,1011.93
2017-06-08T00:13:39.626Z,1011.94
2017-06-08T00:14:41.036Z,1011.96
2017-06-08T00:15:42.452Z,1011.95
2017-06-08T00:16:43.871Z,1011.98
2017-06-08T00:17:45.286Z,1011.93
2017-06-08T00:18:46.704Z,1011.97
2017-06-08T00:19:48.117Z,1011.94
2017-06-08T00:20:49.530Z,1011.92
2017-06-08T00:21:50.951Z,1011.88
2017-06-08T00:22:52.381Z,1011.90
2017-06-08T00:23:53.784Z,1011.91
2017-06-08T00:24:55.224Z,1011.88
2017-06-08T00:25:56.656Z,1011.94
2017-06-08T00:26:58.066Z,1011.91
2017-06-08T00:27:59.481Z,1011.90
2017-06-08T00:29:00.913Z,1011.87
2017-06-08T00:30:02.324Z,1011.89
2017-06-08T00:31:03.736Z,1011.89
2017-06-08T00:32:05.171Z,1011.87
2017-06-08T00:33:06.599Z,1011.87
2017-06-08T00:34:08.024Z,1011.88
2017-06-08T00:35:09.433Z,1011.88
2017-06-08T00:36:10.852Z,1011.89
2017-06-08T00:37:12.280Z,1011.89
2017-06-08T00:38:13.695Z,1011.90
2017-06-08T00:39:15.113Z,1011.91
2017-06-08T00:40:16.540Z,1011.92
2017-06-08T00:41:17.955Z,1011.89
2017-06-08T00:42:19.372Z,1011.91
2017-06-08T00:43:20.790Z,1011.91
2017-06-08T00:44:22.209Z,1011.87
2017-06-08T00:45:23.620Z,1011.86
2017-06-08T00:46:25.038Z,1011.90
2017-06-08T00:47:26.456Z,1011.89
2017-06-08T00:48:27.872Z,1011.88
2017-06-08T00:49:29.830Z,1011.86
2017-06-08T00:50:31.251Z,1011.94
2017-06-08T00:51:32.673Z,1011.88
2017-06-08T00:52:34.093Z,1011.90
2017-06-08T00:53:35.508Z,1011.95
2017-06-08T00:54:36.939Z,1011.95
2017-06-08T00:55:38.345Z,1011.94
2017-06-08T00:56:39.785Z,1011.96
2017-06-08T00:57:41.202Z,1011.97
2017-06-08T00:58:42.617Z,1011.95
2017-06-08T00:59:44.036Z,1011.98
2017-06-08T01:00:45.460Z,1011.95
2017-06-08T01:01:46.881Z,1011.93
2017-06-08T01:02:48.297Z,1011.95
2017-06-08T01:03:49.717Z,1011.95
2017-06-08T01:04:51.175Z,1011.94
2017-06-08T01:05:52.561Z,1011.92
2017-06-08T01:06:53.976Z,1011.96
2017-06-08T01:07:55.393Z,1011.92
2017-06-08T01:08:56.815Z,1011.89
2017-06-08T01:09:58.260Z,1011.94
2017-06-08T01:10:59.676Z,1011.94
2017-06-08T01:12:01.096Z,1012.00
2017-06-08T01:13:02.506Z,1011.97
2017-06-08T01:14:03.921Z,1012.00
2017-06-08T01:15:05.336Z,1011.96
2017-06-08T01:16:06.753Z,1011.96
2017-06-08T01:17:08.171Z,1011.98
2017-06-08T01:18:09.592Z,1011.97
2017-06-08T01:19:11.013Z,1011.98
2017-06-08T01:20:12.428Z,1011.96
2017-06-08T01:21:13.847Z,1011.98
2017-06-08T01:22:15.259Z,1011.98
2017-06-08T01:23:16.673Z,1011.97
2017-06-08T01:24:18.103Z,1011.94
2017-06-08T01:25:19.502Z,1011.93
2017-06-08T01:26:20.914Z,1011.90
2017-06-08T01:27:22.329Z,1011.92
2017-06-08T01:28:23.749Z,1011.92
2017-06-08T01:29:25.159Z,1011.90
2017-06-08T01:30:26.588Z,1011.91
2017-06-08T01:31:28.005Z,1011.94
2017-06-08T01:32:29.424Z,1011.94
2017-06-08T01:33:30.840Z,1011.94
2017-06-08T01:34:32.255Z,1011.96
2017-06-08T01:35:33.674Z,1011.95
2017-06-08T01:36:35.091Z,1011.97
2017-06-08T01:37:36.513Z,1011.95
2017-06-08T01:38:37.927Z,1011.99
2017-06-08T01:39:39.343Z,1012.00
2017-06-08T01:40:40.754Z,1011.98
2017-06-08T01:41:42.179Z,1011.98
2017-06-08T01:42:43.597Z,1012.00
2017-06-08T01:43:45.007Z,1012.03
2017-06-08T01:44:46.422Z,1012.04
2017-06-08T01:45:47.842Z,1012.07
2017-06-08T01:46:49.257Z,1012.08
2017-06-08T01:47:50.668Z,1012.13
2017-06-08T01:48:52.084Z,1012.06
2017-06-08T01:49:53.499Z,1012.11
2017-06-08T01:50:54.919Z,1012.14
2017-06-08T01:51:56.334Z,1012.12
2017-06-08T01:52:57.809Z,1012.07
2017-06-08T01:53:59.222Z,1012.06
2017-06-08T01:55:00.635Z,1012.07
2017-06-08T01:56:02.049Z,1012.11
2017-06-08T01:57:03.464Z,1012.13
2017-06-08T01:58:04.882Z,1012.14
2017-06-08T01:59:06.302Z,1012.15
2017-06-08T02:00:07.719Z,1012.16
2017-06-08T02:01:09.137Z,1012.12
2017-06-08T02:02:10.551Z,1012.11
2017-06-08T02:03:11.967Z,1012.06
2017-06-08T02:04:13.396Z,1012.11
2017-06-08T02:05:14.826Z,1012.06
2017-06-08T02:06:16.241Z,1012.06
2017-06-08T02:07:17.654Z,1012.09
2017-06-08T02:08:19.068Z,1012.13
2017-06-08T02:09:20.478Z,1012.10
2017-06-08T02:10:21.905Z,1012.12
2017-06-08T02:11:23.319Z,1012.09
2017-06-08T02:12:24.748Z,1012.09
2017-06-08T02:13:26.195Z,1012.12
2017-06-08T02:14:27.572Z,1012.11
2017-06-08T02:15:29.000Z,1012.12
2017-06-08T02:16:30.416Z,1012.12
2017-06-08T02:17:31.869Z,1012.14
2017-06-08T02:18:33.287Z,1012.17
2017-06-08T02:19:34.708Z,1012.14
2017-06-08T02:20:36.123Z,1012.12
2017-06-08T02:21:37.536Z,1012.14
2017-06-08T02:22:38.950Z,1012.12
2017-06-08T02:23:40.368Z,1012.17
2017-06-08T02:24:41.786Z,1012.14
2017-06-08T02:25:43.203Z,1012.13
2017-06-08T02:26:44.619Z,1012.13
2017-06-08T02:27:46.042Z,1012.14
2017-06-08T02:28:47.454Z,1012.11
2017-06-08T02:29:48.869Z,1012.13
2017-06-08T02:30:50.289Z,1012.11
2017-06-08T02:31:51.703Z,1012.13
2017-06-08T02:32:53.122Z,1012.13
2017-06-08T02:33:54.540Z,1012.10
2017-06-08T02:34:55.964Z,1012.11
2017-06-08T02:35:57.376Z,1012.12
2017-06-08T02:36:58.790Z,1012.13
2017-06-08T02:38:00.205Z,1012.10
2017-06-08T02:39:01.627Z,1012.04
2017-06-08T02:40:03.044Z,1012.08
2017-06-08T02:41:04.460Z,1012.04
2017-06-08T02:42:05.876Z,1012.10
2017-06-08T02:43:07.310Z,1012.09
2017-06-08T02:44:08.707Z,1012.09
2017-06-08T02:45:10.121Z,1012.07
2017-06-08T02:46:11.539Z,1012.10
2017-06-08T02:47:12.955Z,1012.12
2017-06-08T02:48:14.373Z,1012.12
2017-06-08T02:49:15.790Z,1012.10
2017-06-08T02:50:17.208Z,1012.12
2017-06-08T02:51:18.619Z,1012.13
2017-06-08T02:52:20.046Z,1012.12
2017-06-08T02:53:21.454Z,1012.10
2017-06-08T02:54:22.879Z,1012.10
2017-06-08T02:55:24.292Z,1012.10
2017-06-08T02:56:25.707Z,1012.10
2017-06-08T02:57:27.119Z,1012.05
2017-06-08T02:58:28.533Z,1012.05
2017-06-08T02:59:29.946Z,1012.01
2017-06-08T03:00:31.365Z,1012.08
2017-06-08T03:01:32.784Z,1012.10
2017-06-08T03:02:34.199Z,1012.07
2017-06-08T03:03:35.613Z,1012.09
2017-06-08T03:04:37.031Z,1012.09
2017-06-08T03:05:38.441Z,1012.09
2017-06-08T03:06:39.857Z,1012.08
2017-06-08T03:07:41.283Z,1012.06
2017-06-08T03:08:42.703Z,1012.05
2017-06-08T03:09:44.121Z,1012.07
2017-06-08T03:10:45.545Z,1012.08
2017-06-08T03:11:46.957Z,1012.09
2017-06-08T03:12:48.388Z,1012.13
2017-06-08T03:13:49.789Z,1012.11
2017-06-08T03:14:51.207Z,1012.11
2017-06-08T03:15:52.623Z,1012.11
2017-06-08T03:16:54.042Z,1012.13
2017-06-08T03:17:55.458Z,1012.11
2017-06-08T03:18:56.874Z,1012.11
2017-06-08T03:19:58.291Z,1012.14
2017-06-08T03:20:59.710Z,1012.12
2017-06-08T03:22:01.142Z,1012.13
2017-06-08T03:23:02.560Z,1012.14
2017-06-08T03:24:03.981Z,1012.16
2017-06-08T03:25:05.417Z,1012.15
2017-06-08T03:26:06.822Z,1012.15
2017-06-08T03:27:08.242Z,1012.14
2017-06-08T03:28:09.682Z,1012.14
2017-06-08T03:29:11.100Z,1012.12
2017-06-08T03:30:12.514Z,1012.13
2017-06-08T03:31:13.932Z,1012.12
2017-06-08T03:32:15.350Z,1012.10
2017-06-08T03:33:16.786Z,1012.08
2017-06-08T03:34:18.205Z,1012.08
2017-06-08T03:35:19.647Z,1012.04
2017-06-08T03:36:21.060Z,1012.04
2017-06-08T03:37:22.484Z,1012.05
2017-06-08T03:38:23.892Z,1012.04
2017-06-08T03:39:25.355Z,1012.06
2017-06-08T03:40:26.726Z,1012.07
2017-06-08T03:41:28.144Z,1012.07
2017-06-08T03:42:29.557Z,1012.08
2017-06-08T03:43:30.980Z,1012.13
2017-06-08T03:44:32.402Z,1012.08
2017-06-08T03:45:33.821Z,1012.08
2017-06-08T03:46:35.244Z,1012.06
2017-06-08T03:47:36.657Z,1012.07
2017-06-08T03:48:38.081Z,1012.05
2017-06-08T03:49:39.489Z,1012.05
2017-06-08T03:50:40.905Z,1012.05
2017-06-08T03:51:42.317Z,1012.06
2017-06-08T03:52:43.740Z,1012.04
2017-06-08T03:53:45.159Z,1012.03
2017-06-08T03:54:46.574Z,1012.03
2017-06-08T03:55:47.995Z,1012.07
2017-06-08T03:56:49.413Z,1012.03
2017-06-08T03:57:50.829Z,1012.08
2017-06-08T03:58:52.258Z,1012.06
2017-06-08T03:59:53.687Z,1012.05
2017-06-08T04:00:55.113Z,1012.04
2017-06-08T04:01:56.522Z,1012.05
2017-06-08T04:02:57.944Z,1012.08
2017-06-08T04:03:59.357Z,1012.06
2017-06-08T04:05:00.783Z,1012.04
2017-06-08T04:06:02.203Z,1012.08
2017-06-08T04:07:03.629Z,1012.08
2017-06-08T04:08:05.050Z,1012.09
2017-06-08T04:09:06.473Z,1012.08
2017-06-08T04:10:07.882Z,1012.11
2017-06-08T04:11:09.304Z,1012.16
2017-06-08T04:12:10.723Z,1012.12
2017-06-08T04:13:12.145Z,1012.14
2017-06-08T04:14:13.579Z,1012.11
2017-06-08T04:15:14.991Z,1012.09
2017-06-08T04:16:16.415Z,1012.07
2017-06-08T04:17:17.825Z,1012.04
2017-06-08T04:18:19.241Z,1012.06
2017-06-08T04:19:20.661Z,1012.04
2017-06-08T04:20:22.088Z,1012.07
2017-06-08T04:21:23.506Z,1012.04
2017-06-08T04:22:24.928Z,1012.08
2017-06-08T04:23:26.374Z,1012.05
2017-06-08T04:24:27.797Z,1012.06
2017-06-08T04:25:29.216Z,1012.04
2017-06-08T04:26:30.643Z,1012.02
2017-06-08T04:27:32.053Z,1012.06
2017-06-08T04:28:33.466Z,1012.03
2017-06-08T04:29:34.882Z,1012.01
2017-06-08T04:30:36.306Z,1012.00
2017-06-08T04:31:37.718Z,1012.00
2017-06-08T04:32:39.140Z,1011.95
2017-06-08T04:33:40.555Z,1011.93
2017-06-08T04:34:41.982Z,1011.89
2017-06-08T04:35:43.398Z,1011.88
2017-06-08T04:36:44.814Z,1011.86
2017-06-08T04:37:46.231Z,1011.92
2017-06-08T04:38:47.648Z,1011.87
2017-06-08T04:39:49.064Z,1011.90
2017-06-08T04:40:50.509Z,1011.87
2017-06-08T04:41:51.937Z,1011.84
2017-06-08T04:42:53.358Z,1011.85
2017-06-08T04:43:54.780Z,1011.81
2017-06-08T04:44:56.195Z,1011.80
2017-06-08T04:45:57.611Z,1011.76
2017-06-08T04:46:59.032Z,1011.77
2017-06-08T04:48:00.447Z,1011.73
2017-06-08T04:49:01.868Z,1011.72
2017-06-08T04:50:03.297Z,1011.71
2017-06-08T04:51:04.716Z,1011.71
2017-06-08T04:52:06.133Z,1011.67
2017-06-08T04:53:07.551Z,1011.62
2017-06-08T04:54:08.981Z,1011.62
2017-06-08T04:55:10.393Z,1011.59
2017-06-08T04:56:11.814Z,1011.59
2017-06-08T04:57:13.233Z,1011.59
2017-06-08T04:58:14.654Z,1011.60
2017-06-08T04:59:16.072Z,1011.58
2017-06-08T05:00:17.706Z,1011.58
2017-06-08T05:01:19.130Z,1011.55
2017-06-08T05:02:20.566Z,1011.56
2017-06-08T05:03:21.988Z,1011.54
2017-06-08T05:04:23.409Z,1011.51
2017-06-08T05:05:24.837Z,1011.47
2017-06-08T05:06:26.251Z,1011.44
2017-06-08T05:07:28.176Z,1011.46
2017-06-08T05:08:29.598Z,1011.43
2017-06-08T05:09:31.026Z,1011.44
2017-06-08T05:10:32.442Z,1011.39
2017-06-08T05:11:33.863Z,1011.39
2017-06-08T05:12:35.291Z,1011.44
2017-06-08T05:13:36.730Z,1011.39
2017-06-08T05:14:38.153Z,1011.37
2017-06-08T05:15:39.579Z,1011.43
2017-06-08T05:16:41.004Z,1011.41
2017-06-08T05:17:42.415Z,1011.45
2017-06-08T05:18:43.836Z,1011.42
2017-06-08T05:19:45.258Z,1011.46
2017-06-08T05:20:46.678Z,1011.51
2017-06-08T05:21:48.092Z,1011.53
2017-06-08T05:22:49.509Z,1011.51
2017-06-08T05:23:50.926Z,1011.52
2017-06-08T05:24:52.349Z,1011.55
2017-06-08T05:25:53.771Z,1011.54
2017-06-08T05:26:55.191Z,1011.58
2017-06-08T05:27:56.613Z,1011.56
2017-06-08T05:28:58.034Z,1011.55
2017-06-08T05:29:59.463Z,1011.56
2017-06-08T05:31:00.873Z,1011.62
2017-06-08T05:32:02.304Z,1011.62
2017-06-08T05:33:03.721Z,1011.63
2017-06-08T05:34:05.141Z,1011.64
2017-06-08T05:35:06.555Z,1011.67
2017-06-08T05:36:07.991Z,1011.73
2017-06-08T05:37:09.429Z,1011.77
2017-06-08T05:38:10.852Z,1011.81
2017-06-08T05:39:12.273Z,1011.83
2017-06-08T05:40:13.691Z,1011.90
2017-06-08T05:41:15.111Z,1011.90
2017-06-08T05:42:16.525Z,1011.91
2017-06-08T05:43:17.947Z,1011.89
2017-06-08T05:44:19.365Z,1011.88
2017-06-08T05:45:20.782Z,1011.86
2017-06-08T05:46:22.202Z,1011.85
2017-06-08T05:47:23.623Z,1011.86
2017-06-08T05:48:25.045Z,1011.86
2017-06-08T05:49:26.457Z,1011.81
2017-06-08T05:50:27.872Z,1011.78
2017-06-08T05:51:29.298Z,1011.79
2017-06-08T05:52:30.716Z,1011.75
2017-06-08T05:53:32.139Z,1011.73
2017-06-08T05:54:33.555Z,1011.70
2017-06-08T05:55:34.981Z,1011.72
2017-06-08T05:56:36.399Z,1011.66
2017-06-08T05:57:37.815Z,1011.60
2017-06-08T05:58:39.246Z,1011.57
2017-06-08T05:59:40.653Z,1011.56
2017-06-08T06:00:42.073Z,1011.53
2017-06-08T06:01:43.494Z,1011.46
2017-06-08T06:02:44.915Z,1011.46
2017-06-08T06:03:46.344Z,1011.41
2017-06-08T06:04:47.756Z,1011.40
2017-06-08T06:05:49.175Z,1011.44
2017-06-08T06:06:50.632Z,1011.44
2017-06-08T06:07:52.017Z,1011.41
2017-06-08T06:08:53.446Z,1011.41
2017-06-08T06:09:54.895Z,1011.47
2017-06-08T06:10:56.314Z,1011.49
2017-06-08T06:11:57.741Z,1011.53
2017-06-08T06:12:59.166Z,1011.59
2017-06-08T06:14:00.590Z,1011.60
2017-06-08T06:15:02.007Z,1011.61
2017-06-08T06:16:03.429Z,1011.64
2017-06-08T06:17:04.858Z,1011.65
2017-06-08T06:18:06.278Z,1011.68
2017-06-08T06:19:07.696Z,1011.71
2017-06-08T06:20:09.113Z,1011.70
2017-06-08T06:21:10.526Z,1011.71
2017-06-08T06:22:11.961Z,1011.73
2017-06-08T06:23:13.371Z,1011.66
2017-06-08T06:24:14.793Z,1011.67
2017-06-08T06:25:16.216Z,1011.70
2017-06-08T06:26:17.631Z,1011.71
2017-06-08T06:27:19.061Z,1011.69
2017-06-08T06:28:20.471Z,1011.68
2017-06-08T06:29:21.894Z,1011.66
2017-06-08T06:30:23.318Z,1011.68
2017-06-08T06:31:24.736Z,1011.66
2017-06-08T06:32:26.172Z,1011.65
2017-06-08T06:33:27.599Z,1011.65
2017-06-08T06:34:29.019Z,1011.65
2017-06-08T06:35:30.484Z,1011.60
2017-06-08T06:36:31.891Z,1011.56
2017-06-08T06:37:33.319Z,1011.55
2017-06-08T06:38:34.730Z,1011.52
2017-06-08T06:39:36.146Z,1011.54
2017-06-08T06:40:37.575Z,1011.57
2017-06-08T06:41:38.985Z,1011.56
2017-06-08T06:42:40.410Z,1011.54
2017-06-08T06:43:41.825Z,1011.56
2017-06-08T06:44:43.267Z,1011.54
2017-06-08T06:45:44.687Z,1011.56
2017-06-08T06:46:46.123Z,1011.54
2017-06-08T06:47:47.536Z,1011.55
2017-06-08T06:48:48.951Z,1011.57
2017-06-08T06:49:50.368Z,1011.54
2017-06-08T06:50:51.787Z,1011.53
2017-06-08T06:51:53.208Z,1011.50
2017-06-08T06:52:54.627Z,1011.53
2017-06-08T06:53:56.047Z,1011.49
2017-06-08T06:54:57.460Z,1011.54
2017-06-08T06:55:58.887Z,1011.51
2017-06-08T06:57:00.312Z,1011.45
2017-06-08T06:58:01.733Z,1011.41
2017-06-08T06:59:03.157Z,1011.42
2017-06-08T07:00:04.594Z,1011.42
2017-06-08T07:01:06.013Z,1011.41
2017-06-08T07:02:07.433Z,1011.45
2017-06-08T07:03:08.857Z,1011.45
2017-06-08T07:04:10.274Z,1011.44
2017-06-08T07:05:11.696Z,1011.44
2017-06-08T07:06:13.117Z,1011.45
2017-06-08T07:07:14.543Z,1011.48
2017-06-08T07:08:15.966Z,1011.43
2017-06-08T07:09:17.393Z,1011.45
2017-06-08T07:10:18.801Z,1011.46
2017-06-08T07:11:20.222Z,1011.46
2017-06-08T07:12:21.637Z,1011.47
2017-06-08T07:13:23.064Z,1011.51
2017-06-08T07:14:24.496Z,1011.48
2017-06-08T07:15:25.904Z,1011.48
2017-06-08T07:16:27.352Z,1011.48
2017-06-08T07:17:28.777Z,1011.49
2017-06-08T07:18:30.202Z,1011.53
2017-06-08T07:19:31.624Z,1011.51
2017-06-08T07:20:33.046Z,1011.50
2017-06-08T07:21:34.632Z,1011.50
2017-06-08T07:22:36.049Z,1011.47
2017-06-08T07:23:37.468Z,1011.49
2017-06-08T07:24:38.905Z,1011.55
2017-06-08T07:25:40.338Z,1011.51
2017-06-08T07:26:41.770Z,1011.51
2017-06-08T07:27:43.184Z,1011.47
2017-06-08T07:28:44.622Z,1011.48
2017-06-08T07:29:46.094Z,1011.48
2017-06-08T07:30:47.502Z,1011.52
2017-06-08T07:31:48.930Z,1011.51
2017-06-08T07:32:50.353Z,1011.51
2017-06-08T07:33:51.794Z,1011.46
2017-06-08T07:34:53.216Z,1011.51
2017-06-08T07:35:54.644Z,1011.49
2017-06-08T07:36:56.069Z,1011.49
2017-06-08T07:37:57.487Z,1011.48
2017-06-08T07:38:58.908Z,1011.51
2017-06-08T07:40:00.332Z,1011.49
2017-06-08T07:41:01.753Z,1011.51
2017-06-08T07:42:03.177Z,1011.49
2017-06-08T07:43:04.601Z,1011.52
2017-06-08T07:44:06.016Z,1011.50
2017-06-08T07:45:07.445Z,1011.48
2017-06-08T07:46:08.865Z,1011.48
2017-06-08T07:47:10.284Z,1011.49
2017-06-08T07:48:11.707Z,1011.52
2017-06-08T07:49:13.130Z,1011.55
2017-06-08T07:50:14.552Z,1011.51
2017-06-08T07:51:15.985Z,1011.53
2017-06-08T07:52:17.396Z,1011.49
2017-06-08T07:53:18.819Z,1011.49
2017-06-08T07:54:20.246Z,1011.49
2017-06-08T07:55:21.663Z,1011.48
2017-06-08T07:56:23.091Z,1011.49
2017-06-08T07:57:24.511Z,1011.48
2017-06-08T07:58:25.934Z,1011.46
2017-06-08T07:59:27.354Z,1011.47
2017-06-08T08:00:28.782Z,1011.41
2017-06-08T08:01:30.235Z,1011.40
2017-06-08T08:02:31.730Z,1011.43
2017-06-08T08:03:33.144Z,1011.38
2017-06-08T08:04:34.573Z,1011.39
2017-06-08T08:05:36.000Z,1011.42
2017-06-08T08:06:37.445Z,1011.36
2017-06-08T08:07:38.877Z,1011.28
2017-06-08T08:08:40.300Z,1011.34
2017-06-08T08:09:41.730Z,1011.35
2017-06-08T08:10:43.150Z,1011.37
2017-06-08T08:11:44.590Z,1011.39
2017-06-08T08:12:46.040Z,1011.40
2017-06-08T08:13:47.432Z,1011.41
2017-06-08T08:14:48.854Z,1011.34
2017-06-08T08:15:50.275Z,1011.38
2017-06-08T08:16:51.702Z,1011.33
2017-06-08T08:17:53.118Z,1011.38
2017-06-08T08:18:54.540Z,1011.42
2017-06-08T08:19:55.959Z,1011.34
2017-06-08T08:20:57.383Z,1011.34
2017-06-08T08:21:58.799Z,1011.35
2017-06-08T08:23:00.225Z,1011.37
2017-06-08T08:24:01.640Z,1011.34
2017-06-08T08:25:03.068Z,1011.33
2017-06-08T08:26:04.491Z,1011.33
2017-06-08T08:27:05.918Z,1011.34
2017-06-08T08:28:07.334Z,1011.32
2017-06-08T08:29:08.761Z,1011.31
2017-06-08T08:30:10.178Z,1011.28
2017-06-08T08:31:11.608Z,1011.35
2017-06-08T08:32:13.029Z,1011.33
2017-06-08T08:33:14.472Z,1011.35
2017-06-08T08:34:15.894Z,1011.37
2017-06-08T08:35:17.312Z,1011.42
2017-06-08T08:36:18.732Z,1011.36
2017-06-08T08:37:20.154Z,1011.33
2017-06-08T08:38:21.632Z,1011.32
2017-06-08T08:39:23.058Z,1011.32
2017-06-08T08:40:24.505Z,1011.34
2017-06-08T08:41:25.922Z,1011.32
2017-06-08T08:42:27.340Z,1011.36
2017-06-08T08:43:28.763Z,1011.34
2017-06-08T08:44:30.208Z,1011.33
2017-06-08T08:45:31.631Z,1011.34
2017-06-08T08:46:33.051Z,1011.39
2017-06-08T08:47:34.475Z,1011.36
2017-06-08T08:48:35.896Z,1011.31
2017-06-08T08:49:37.317Z,1011.35
2017-06-08T08:50:38.733Z,1011.31
2017-06-08T08:51:40.154Z,1011.23
2017-06-08T08:52:41.574Z,1011.29
2017-06-08T08:53:42.997Z,1011.21
2017-06-08T08:54:44.416Z,1011.32
2017-06-08T08:55:45.835Z,1011.22
2017-06-08T08:56:47.254Z,1011.23
2017-06-08T08:57:48.681Z,1011.24
2017-06-08T08:58:50.103Z,1011.23
2017-06-08T08:59:51.518Z,1011.20
2017-06-08T09:00:52.959Z,1011.17
2017-06-08T09:01:54.374Z,1011.18
2017-06-08T09:02:55.795Z,1011.28
2017-06-08T09:03:57.217Z,1011.25
2017-06-08T09:04:58.658Z,1011.25
2017-06-08T09:06:00.099Z,1011.19
2017-06-08T09:07:01.519Z,1011.21
2017-06-08T09:08:02.950Z,1011.18
2017-06-08T09:09:04.378Z,1011.20
2017-06-08T09:10:05.792Z,1011.21
2017-06-08T09:11:07.212Z,1011.15
2017-06-08T09:12:08.640Z,1011.20
2017-06-08T09:13:10.058Z,1011.24
2017-06-08T09:14:11.480Z,1011.22
2017-06-08T09:15:12.901Z,1011.21
2017-06-08T09:16:14.334Z,1011.22
2017-06-08T09:17:15.750Z,1011.24
2017-06-08T09:18:17.169Z,1011.14
2017-06-08T09:19:18.621Z,1011.18
2017-06-08T09:20:20.044Z,1011.16
2017-06-08T09:21:21.468Z,1011.18
2017-06-08T09:22:22.913Z,1011.20
2017-06-08T09:23:24.336Z,1011.17
2017-06-08T09:24:25.757Z,1011.19
2017-06-08T09:25:27.177Z,1011.14
2017-06-08T09:26:28.596Z,1011.16
2017-06-08T09:27:30.031Z,1011.12
2017-06-08T09:28:31.435Z,1011.15
2017-06-08T09:29:32.858Z,1011.14
2017-06-08T09:30:34.285Z,1011.09
2017-06-08T09:31:35.702Z,1011.08
2017-06-08T09:32:37.123Z,1011.14
2017-06-08T09:33:38.543Z,1011.12
2017-06-08T09:34:39.983Z,1011.13
2017-06-08T09:35:41.410Z,1011.11
2017-06-08T09:36:42.834Z,1011.09
2017-06-08T09:37:44.266Z,1011.06
2017-06-08T09:38:45.685Z,1011.04
2017-06-08T09:39:47.098Z,1011.09
2017-06-08T09:40:48.529Z,1011.02
2017-06-08T09:41:49.951Z,1011.04
2017-06-08T09:42:51.371Z,1010.98
2017-06-08T09:43:52.803Z,1011.02
2017-06-08T09:44:54.223Z,1010.91
2017-06-08T09:45:55.642Z,1010.98
2017-06-08T09:46:57.074Z,1010.98
2017-06-08T09:47:58.498Z,1010.99
2017-06-08T09:48:59.919Z,1010.93
2017-06-08T09:50:01.349Z,1010.97
2017-06-08T09:51:02.764Z,1010.94
2017-06-08T09:52:04.207Z,1011.01
2017-06-08T09:53:05.628Z,1010.96
2017-06-08T09:54:07.056Z,1010.94
2017-06-08T09:55:08.471Z,1010.93
2017-06-08T09:56:09.896Z,1010.99
2017-06-08T09:57:11.332Z,1010.97
2017-06-08T09:58:12.738Z,1010.95
2017-06-08T09:59:14.164Z,1010.90
2017-06-08T10:00:15.583Z,1010.80
2017-06-08T10:01:17.000Z,1010.88
2017-06-08T10:02:18.426Z,1010.85
2017-06-08T10:03:19.859Z,1010.94
2017-06-08T10:04:21.306Z,1010.90
2017-06-08T10:05:22.740Z,1010.84
2017-06-08T10:06:24.159Z,1010.84
2017-06-08T10:07:25.581Z,1010.84
2017-06-08T10:08:26.995Z,1010.86
2017-06-08T10:09:28.419Z,1010.86
2017-06-08T10:10:29.873Z,1010.88
2017-06-08T10:11:31.301Z,1010.90
2017-06-08T10:12:32.728Z,1010.89
2017-06-08T10:13:34.151Z,1010.90
2017-06-08T10:14:35.580Z,1010.83
2017-06-08T10:15:36.998Z,1010.97
2017-06-08T10:16:38.423Z,1010.95
2017-06-08T10:17:39.852Z,1010.93
2017-06-08T10:18:41.296Z,1010.84
2017-06-08T10:19:42.728Z,1010.88
2017-06-08T10:20:44.151Z,1010.91
2017-06-08T10:21:45.570Z,1010.83
2017-06-08T10:22:46.994Z,1010.92
2017-06-08T10:23:48.457Z,1010.91
2017-06-08T10:24:49.901Z,1010.85
2017-06-08T10:25:51.325Z,1010.82
2017-06-08T10:26:52.743Z,1010.90
2017-06-08T10:27:54.169Z,1010.88
2017-06-08T10:28:55.597Z,1010.83
2017-06-08T10:29:57.010Z,1010.83
2017-06-08T10:30:58.439Z,1010.79
2017-06-08T10:31:59.858Z,1010.77
2017-06-08T10:33:01.283Z,1010.76
2017-06-08T10:34:02.706Z,1010.76
2017-06-08T10:35:04.129Z,1010.74
2017-06-08T10:36:05.555Z,1010.72
2017-06-08T10:37:06.977Z,1010.74
2017-06-08T10:38:08.398Z,1010.73
2017-06-08T10:39:09.819Z,1010.72
2017-06-08T10:40:11.236Z,1010.73
2017-06-08T10:41:12.662Z,1010.69
2017-06-08T10:42:14.085Z,1010.68
2017-06-08T10:43:15.537Z,1010.71
2017-06-08T10:44:16.956Z,1010.75
2017-06-08T10:45:18.381Z,1010.71
2017-06-08T10:46:19.806Z,1010.69
2017-06-08T10:47:21.270Z,1010.69
2017-06-08T10:48:22.664Z,1010.63
2017-06-08T10:49:24.082Z,1010.63
2017-06-08T10:50:25.515Z,1010.60
2017-06-08T10:51:26.930Z,1010.62
2017-06-08T10:52:28.353Z,1010.62
2017-06-08T10:53:29.795Z,1010.61
2017-06-08T10:54:31.229Z,1010.56
2017-06-08T10:55:32.649Z,1010.61
2017-06-08T10:56:34.072Z,1010.55
2017-06-08T10:57:35.498Z,1010.57
2017-06-08T10:58:36.919Z,1010.51
2017-06-08T10:59:38.343Z,1010.46
2017-06-08T11:00:39.764Z,1010.49
2017-06-08T11:01:41.190Z,1010.46
2017-06-08T11:02:42.604Z,1010.50
2017-06-08T11:03:44.069Z,1010.47
2017-06-08T11:04:45.484Z,1010.53
2017-06-08T11:05:46.908Z,1010.45
2017-06-08T11:06:48.333Z,1010.47
2017-06-08T11:07:49.754Z,1010.47
2017-06-08T11:08:51.176Z,1010.42
2017-06-08T11:09:52.601Z,1010.39
2017-06-08T11:10:54.025Z,1010.34
2017-06-08T11:11:55.466Z,1010.36
2017-06-08T11:12:56.899Z,1010.33
2017-06-08T11:13:58.315Z,1010.33
2017-06-08T11:14:59.740Z,1010.37
2017-06-08T11:16:01.157Z,1010.43
2017-06-08T11:17:02.582Z,1010.43
2017-06-08T11:18:04.006Z,1010.39
2017-06-08T11:19:05.427Z,1010.39
2017-06-08T11:20:06.864Z,1010.37
2017-06-08T11:21:08.295Z,1010.36
2017-06-08T11:22:09.714Z,1010.32
2017-06-08T11:23:11.141Z,1010.28
2017-06-08T11:24:12.557Z,1010.31
2017-06-08T11:25:13.985Z,1010.36
2017-06-08T11:26:15.407Z,1010.32
2017-06-08T11:27:16.832Z,1010.34
2017-06-08T11:28:18.249Z,1010.33
2017-06-08T11:29:19.691Z,1010.32
2017-06-08T11:30:21.115Z,1010.27
2017-06-08T11:31:22.537Z,1010.25
2017-06-08T11:32:23.959Z,1010.26
2017-06-08T11:33:25.389Z,1010.31
2017-06-08T11:34:26.801Z,1010.28
2017-06-08T11:35:28.224Z,1010.23
2017-06-08T11:36:29.649Z,1010.24
2017-06-08T11:37:31.074Z,1010.24
2017-06-08T11:38:32.495Z,1010.28
2017-06-08T11:39:33.921Z,1010.27
2017-06-08T11:40:35.340Z,1010.31
2017-06-08T11:41:36.765Z,1010.29
2017-06-08T11:42:38.196Z,1010.34
2017-06-08T11:43:39.620Z,1010.28
2017-06-08T11:44:41.046Z,1010.29
2017-06-08T11:45:42.485Z,1010.27
2017-06-08T11:46:43.908Z,1010.23
2017-06-08T11:47:45.352Z,1010.21
2017-06-08T11:48:46.794Z,1010.29
2017-06-08T11:49:48.234Z,1010.23
2017-06-08T11:50:49.667Z,1010.26
2017-06-08T11:51:51.103Z,1010.22
2017-06-08T11:52:52.531Z,1010.21
2017-06-08T11:53:53.969Z,1010.18
2017-06-08T11:54:55.393Z,1010.15
2017-06-08T11:55:56.815Z,1010.13
2017-06-08T11:56:58.242Z,1010.16
2017-06-08T11:57:59.666Z,1010.14
2017-06-08T11:59:01.090Z,1010.11
2017-06-08T12:00:02.525Z,1010.09
2017-06-08T12:01:03.947Z,1010.08
2017-06-08T12:02:05.378Z,1010.09
2017-06-08T12:03:06.809Z,1010.07
2017-06-08T12:04:08.227Z,1010.04
2017-06-08T12:05:09.646Z,1010.05
2017-06-08T12:06:11.065Z,1010.08
2017-06-08T12:07:12.491Z,1010.05
2017-06-08T12:08:13.913Z,1010.02
2017-06-08T12:09:15.353Z,1010.03
2017-06-08T12:10:16.773Z,1009.97
2017-06-08T12:11:18.197Z,1009.97
2017-06-08T12:12:19.617Z,1009.98
2017-06-08T12:13:21.046Z,1009.96
2017-06-08T12:14:22.467Z,1009.95
2017-06-08T12:15:23.893Z,1009.99
2017-06-08T12:16:25.325Z,1010.02
2017-06-08T12:17:26.745Z,1010.01
2017-06-08T12:18:28.169Z,1010.00
2017-06-08T12:19:29.599Z,1009.89
2017-06-08T12:20:31.024Z,1009.95
2017-06-08T12:21:32.462Z,1009.95
2017-06-08T12:22:33.872Z,1009.91